createdAt,value
2022-09-29T00:01:19.264Z,1.40
2022-09-29T00:03:47.527Z,1.70
2022-09-29T00:06:19.417Z,1.80
2022-09-29T00:08:48.019Z,2.17
2022-09-29T00:11:20.047Z,1.80
2022-09-29T00:13:48.871Z,2.00
2022-09-29T00:16:17.651Z,2.10
2022-09-29T00:18:46.068Z,2.20
2022-09-29T00:21:21.976Z,2.00
2022-09-29T00:23:51.154Z,2.50
2022-09-29T00:26:24.585Z,2.47
2022-09-29T00:28:55.604Z,2.40
2022-09-29T00:31:25.025Z,2.53
2022-09-29T00:33:53.791Z,1.97
2022-09-29T00:36:23.694Z,1.77
2022-09-29T00:38:52.889Z,2.10
2022-09-29T00:41:24.494Z,2.60
2022-09-29T00:43:56.965Z,2.23
2022-09-29T00:46:38.552Z,2.57
2022-09-29T00:49:15.113Z,2.23
2022-09-29T00:51:48.832Z,2.80
2022-09-29T00:54:17.671Z,2.70
2022-09-29T00:56:48.135Z,2.60
2022-09-29T00:59:21.318Z,2.77
2022-09-29T01:01:49.592Z,2.90
2022-09-29T01:04:22.533Z,3.07
2022-09-29T01:06:54.697Z,2.90
2022-09-29T01:09:27.143Z,2.70
2022-09-29T01:11:59.152Z,3.10
2022-09-29T01:14:29.079Z,2.70
2022-09-29T01:16:57.349Z,3.40
2022-09-29T01:19:36.720Z,3.30
2022-09-29T01:22:15.052Z,2.90
2022-09-29T01:25:03.497Z,3.20
2022-09-29T01:27:53.165Z,3.50
2022-09-29T01:30:24.727Z,3.20
2022-09-29T01:33:23.151Z,3.37
2022-09-29T01:36:03.901Z,3.40
2022-09-29T01:38:49.061Z,3.43
2022-09-29T01:41:22.240Z,3.80
2022-09-29T01:43:57.276Z,3.70
2022-09-29T01:46:29.287Z,3.47
2022-09-29T01:48:59.974Z,3.50
2022-09-29T01:51:32.015Z,3.77
2022-09-29T01:54:05.335Z,4.47
2022-09-29T01:56:38.222Z,4.30
2022-09-29T01:59:11.473Z,3.90
2022-09-29T02:01:44.487Z,4.67
2022-09-29T02:04:17.456Z,4.60
2022-09-29T02:06:55.607Z,4.87
2022-09-29T02:09:28.889Z,5.20
2022-09-29T02:12:01.286Z,5.20
2022-09-29T02:14:33.885Z,5.83
2022-09-29T02:17:07.938Z,6.10
2022-09-29T02:19:39.729Z,6.73
2022-09-29T02:22:08.091Z,7.13
2022-09-29T02:24:41.242Z,7.03
2022-09-29T02:27:10.774Z,6.20
2022-09-29T02:29:39.649Z,6.13
2022-09-29T02:32:09.798Z,5.17
2022-09-29T02:34:43.651Z,4.87
2022-09-29T02:37:24.704Z,5.10
2022-09-29T02:40:01.773Z,4.47
2022-09-29T02:42:36.476Z,4.20
2022-09-29T02:45:23.198Z,4.37
2022-09-29T02:48:14.140Z,3.60
2022-09-29T02:51:07.611Z,3.43
2022-09-29T02:53:48.932Z,3.17
2022-09-29T02:56:26.452Z,3.07
2022-09-29T02:59:01.208Z,2.80
2022-09-29T03:01:32.869Z,2.90
2022-09-29T03:04:04.901Z,2.80
2022-09-29T03:06:34.995Z,2.60
2022-09-29T03:09:03.201Z,2.80
2022-09-29T03:11:31.623Z,2.70
2022-09-29T03:13:59.832Z,2.90
2022-09-29T03:16:28.239Z,2.30
2022-09-29T03:18:57.062Z,2.80
2022-09-29T03:21:25.348Z,2.90
2022-09-29T03:23:57.640Z,2.30
2022-09-29T03:26:26.574Z,2.60
2022-09-29T03:28:55.189Z,2.50
2022-09-29T03:31:23.600Z,2.97
2022-09-29T03:33:52.122Z,2.90
2022-09-29T03:36:20.772Z,2.80
2022-09-29T03:38:49.008Z,2.90
2022-09-29T03:41:18.830Z,2.80
2022-09-29T03:43:47.251Z,3.07
2022-09-29T03:46:15.846Z,3.13
2022-09-29T03:48:44.060Z,2.97
2022-09-29T03:51:12.511Z,3.00
2022-09-29T03:53:40.798Z,2.60
2022-09-29T03:56:09.050Z,2.87
2022-09-29T03:58:39.196Z,2.80
2022-09-29T04:01:07.786Z,2.70
2022-09-29T04:03:36.362Z,2.97
2022-09-29T04:06:04.794Z,2.80
2022-09-29T04:08:33.118Z,2.37
2022-09-29T04:11:01.468Z,2.60
2022-09-29T04:13:29.726Z,2.20
2022-09-29T04:16:01.113Z,2.20
2022-09-29T04:18:29.972Z,2.30
2022-09-29T04:21:00.734Z,1.93
2022-09-29T04:23:30.482Z,2.33
2022-09-29T04:25:59.207Z,2.00
2022-09-29T04:28:27.478Z,1.80
2022-09-29T04:30:55.893Z,2.07
2022-09-29T04:33:25.385Z,2.13
2022-09-29T04:35:53.966Z,2.40
2022-09-29T04:38:22.433Z,2.33
2022-09-29T04:40:50.959Z,2.60
2022-09-29T04:43:19.592Z,2.53
2022-09-29T04:45:47.910Z,2.97
2022-09-29T04:48:16.287Z,3.00
2022-09-29T04:50:46.174Z,2.50
2022-09-29T04:53:14.339Z,2.67
2022-09-29T04:55:43.176Z,2.20
2022-09-29T04:58:11.721Z,2.00
2022-09-29T05:00:40.076Z,2.33
2022-09-29T05:03:08.284Z,2.40
2022-09-29T05:05:36.991Z,2.37
2022-09-29T05:08:06.962Z,2.40
2022-09-29T05:10:35.319Z,2.47
2022-09-29T05:13:03.697Z,2.60
2022-09-29T05:15:31.849Z,2.37
2022-09-29T05:18:04.051Z,2.70
2022-09-29T05:20:39.885Z,2.40
2022-09-29T05:23:12.697Z,2.50
2022-09-29T05:25:41.400Z,2.43
2022-09-29T05:28:10.636Z,2.10
2022-09-29T05:30:38.899Z,2.23
2022-09-29T05:33:07.311Z,2.20
2022-09-29T05:35:36.246Z,2.10
2022-09-29T05:38:04.636Z,1.83
2022-09-29T05:40:34.331Z,1.90
2022-09-29T05:43:02.770Z,2.00
2022-09-29T05:45:31.003Z,2.47
2022-09-29T05:47:59.592Z,2.30
2022-09-29T05:50:27.824Z,2.10
2022-09-29T05:52:56.183Z,2.20
2022-09-29T05:55:24.752Z,2.40
2022-09-29T05:57:54.372Z,2.60
2022-09-29T06:00:23.008Z,2.70
2022-09-29T06:02:51.412Z,2.60
2022-09-29T06:05:19.853Z,2.73
2022-09-29T06:07:48.264Z,2.67
2022-09-29T06:10:16.486Z,3.00
2022-09-29T06:12:45.099Z,3.23
2022-09-29T06:15:14.976Z,3.70
2022-09-29T06:17:43.658Z,3.70
2022-09-29T06:20:12.385Z,3.50
2022-09-29T06:22:40.677Z,3.83
2022-09-29T06:25:09.645Z,4.50
2022-09-29T06:27:38.224Z,4.23
2022-09-29T06:30:07.576Z,4.47
2022-09-29T06:32:37.639Z,4.70
2022-09-29T06:35:24.433Z,4.80
2022-09-29T06:37:55.408Z,5.03
2022-09-29T06:40:25.368Z,4.80
2022-09-29T06:42:53.744Z,4.57
2022-09-29T06:45:22.399Z,4.83
2022-09-29T06:47:51.935Z,4.90
2022-09-29T06:50:20.476Z,4.50
2022-09-29T06:53:01.673Z,3.10
2022-09-29T06:55:32.335Z,3.17
2022-09-29T06:58:03.969Z,3.10
2022-09-29T07:00:34.580Z,3.83
2022-09-29T07:03:04.204Z,3.63
2022-09-29T07:05:33.372Z,5.50
2022-09-29T07:08:03.036Z,5.20
2022-09-29T07:10:31.358Z,5.17
2022-09-29T07:12:59.738Z,4.50
2022-09-29T07:15:32.004Z,6.47
2022-09-29T07:18:01.078Z,7.70
2022-09-29T07:20:32.404Z,6.60
2022-09-29T07:23:01.037Z,7.10
2022-09-29T07:25:50.675Z,6.57
2022-09-29T07:28:17.710Z,6.27
2022-09-29T07:30:46.125Z,5.77
2022-09-29T07:33:14.545Z,5.20
2022-09-29T07:35:44.520Z,5.40
2022-09-29T07:38:12.713Z,4.83
2022-09-29T07:40:41.092Z,6.20
2022-09-29T07:43:09.718Z,5.50
2022-09-29T07:45:38.114Z,3.97
2022-09-29T07:48:06.521Z,3.63
2022-09-29T07:50:35.722Z,3.90
2022-09-29T07:53:05.392Z,4.13
2022-09-29T07:55:34.114Z,3.10
2022-09-29T07:58:02.793Z,2.77
2022-09-29T08:00:32.536Z,2.30
2022-09-29T08:03:03.325Z,2.00
2022-09-29T08:05:33.528Z,1.70
2022-09-29T08:08:02.149Z,1.83
2022-09-29T08:10:37.508Z,1.87
2022-09-29T08:13:09.586Z,2.13
2022-09-29T08:15:38.102Z,1.90
2022-09-29T08:18:09.377Z,1.40
2022-09-29T08:20:37.978Z,1.90
2022-09-29T08:23:06.939Z,2.10
2022-09-29T08:25:36.965Z,2.00
2022-09-29T08:28:05.383Z,1.93
2022-09-29T08:30:33.732Z,1.90
2022-09-29T08:33:01.895Z,2.23
2022-09-29T08:35:32.205Z,2.00
2022-09-29T08:38:00.623Z,1.93
2022-09-29T08:40:30.134Z,2.20
2022-09-29T08:43:04.725Z,2.07
2022-09-29T08:45:40.328Z,1.10
2022-09-29T08:48:22.901Z,1.30
2022-09-29T08:50:57.427Z,1.87
2022-09-29T08:53:29.384Z,0.97
2022-09-29T08:56:01.604Z,1.20
2022-09-29T08:58:32.099Z,1.20
2022-09-29T09:01:12.018Z,1.37
2022-09-29T09:04:15.782Z,1.17
2022-09-29T09:06:57.414Z,0.87
2022-09-29T09:09:56.045Z,1.20
2022-09-29T09:12:50.463Z,2.20
2022-09-29T09:15:47.605Z,2.17
2022-09-29T09:18:32.925Z,1.40
2022-09-29T09:21:08.279Z,0.90
2022-09-29T09:23:45.632Z,0.90
2022-09-29T09:26:15.653Z,0.90
2022-09-29T09:28:50.491Z,1.37
2022-09-29T09:31:25.221Z,1.07
2022-09-29T09:34:05.603Z,1.30
2022-09-29T09:36:38.002Z,0.90
2022-09-29T09:39:13.659Z,1.03
2022-09-29T09:41:44.127Z,1.00
2022-09-29T09:44:17.480Z,0.93
2022-09-29T09:46:51.042Z,0.80
2022-09-29T09:49:24.634Z,0.90
2022-09-29T09:51:59.107Z,0.70
2022-09-29T09:54:34.977Z,1.30
2022-09-29T09:57:25.818Z,0.87
2022-09-29T10:00:04.411Z,0.97
2022-09-29T10:02:34.167Z,0.90
2022-09-29T10:05:07.384Z,0.93
2022-09-29T10:07:38.033Z,0.60
2022-09-29T10:10:16.741Z,1.00
2022-09-29T10:12:45.228Z,0.80
2022-09-29T10:15:26.651Z,0.80
2022-09-29T10:18:05.831Z,0.87
2022-09-29T10:20:36.759Z,0.60
2022-09-29T10:23:22.482Z,0.70
2022-09-29T10:25:56.661Z,0.70
2022-09-29T10:28:26.026Z,0.70
2022-09-29T10:30:55.799Z,0.80
2022-09-29T10:33:27.273Z,0.63
2022-09-29T10:36:08.810Z,0.93
2022-09-29T10:38:38.540Z,0.87
2022-09-29T10:41:08.944Z,1.20
2022-09-29T10:43:40.370Z,0.67
2022-09-29T10:46:38.713Z,0.68
2022-09-29T10:49:14.708Z,0.85
2022-09-29T10:51:51.912Z,0.80
2022-09-29T10:54:20.429Z,0.73
2022-09-29T10:56:50.437Z,0.80
2022-09-29T10:59:19.696Z,0.50
2022-09-29T11:01:51.451Z,0.70
2022-09-29T11:04:24.991Z,0.90
2022-09-29T11:06:54.016Z,0.90
2022-09-29T11:09:29.847Z,0.90
2022-09-29T11:12:05.022Z,0.97
2022-09-29T11:14:42.944Z,0.95
2022-09-29T11:17:23.837Z,1.07
2022-09-29T11:19:54.584Z,1.20
2022-09-29T11:22:41.765Z,2.40
2022-09-29T11:25:32.137Z,2.00
2022-09-29T11:28:20.822Z,1.60
2022-09-29T11:31:01.352Z,1.67
2022-09-29T11:33:40.273Z,1.50
2022-09-29T11:36:19.102Z,1.50
2022-09-29T11:38:58.843Z,1.60
2022-09-29T11:41:42.622Z,1.20
2022-09-29T11:44:43.352Z,1.20
2022-09-29T11:47:23.020Z,0.50
2022-09-29T11:50:01.747Z,0.60
2022-09-29T11:52:49.317Z,0.70
2022-09-29T11:55:31.663Z,0.60
2022-09-29T11:58:14.172Z,0.80
2022-09-29T12:01:02.077Z,0.70
2022-09-29T12:03:39.297Z,0.80
2022-09-29T12:06:29.787Z,0.93
2022-09-29T12:09:12.404Z,1.37
2022-09-29T12:12:19.055Z,1.50
2022-09-29T12:15:02.875Z,0.90
2022-09-29T12:17:37.231Z,0.60
2022-09-29T12:20:15.735Z,0.67
2022-09-29T12:22:48.477Z,0.80
2022-09-29T12:25:22.372Z,0.73
2022-09-29T12:27:52.914Z,0.70
2022-09-29T12:30:26.173Z,0.50
2022-09-29T12:32:58.788Z,0.50
2022-09-29T12:35:35.707Z,0.70
2022-09-29T12:38:16.778Z,0.70
2022-09-29T12:40:53.611Z,0.60
2022-09-29T12:43:26.928Z,0.93
2022-09-29T12:46:01.936Z,0.70
2022-09-29T12:48:41.715Z,0.50
2022-09-29T12:51:14.688Z,0.63
2022-09-29T12:53:55.033Z,0.68
2022-09-29T12:56:30.987Z,0.50
2022-09-29T12:59:04.566Z,0.70
2022-09-29T13:01:36.542Z,0.70
2022-09-29T13:04:40.154Z,0.60
2022-09-29T13:07:34.655Z,0.43
2022-09-29T13:10:18.128Z,0.65
2022-09-29T13:13:18.846Z,0.80
2022-09-29T13:16:10.033Z,0.95
2022-09-29T13:19:20.947Z,0.50
2022-09-29T13:22:02.570Z,0.60
2022-09-29T13:24:48.814Z,0.70
2022-09-29T13:27:35.287Z,0.77
2022-09-29T13:30:07.766Z,0.90
2022-09-29T13:32:42.477Z,1.05
2022-09-29T13:35:17.418Z,0.63
2022-09-29T13:37:50.241Z,0.60
2022-09-29T13:40:23.168Z,0.60
2022-09-29T13:42:55.691Z,0.80
2022-09-29T13:45:48.383Z,0.70
2022-09-29T13:48:50.539Z,0.55
2022-09-29T13:51:44.060Z,0.70
2022-09-29T13:54:36.089Z,0.60
2022-09-29T13:57:26.965Z,0.68
2022-09-29T14:00:07.394Z,0.75
2022-09-29T14:02:39.319Z,0.80
2022-09-29T14:05:49.896Z,0.75
2022-09-29T14:08:27.714Z,0.70
2022-09-29T14:11:07.414Z,0.80
2022-09-29T14:13:44.783Z,0.60
2022-09-29T14:16:33.073Z,0.90
2022-09-29T14:19:06.451Z,0.68
2022-09-29T14:21:51.585Z,0.70
2022-09-29T14:24:49.722Z,0.80
2022-09-29T14:27:33.290Z,0.70
2022-09-29T14:30:20.116Z,0.50
2022-09-29T14:32:56.383Z,0.60
2022-09-29T14:35:32.097Z,0.80
2022-09-29T14:38:06.125Z,0.90
2022-09-29T14:40:34.828Z,1.50
2022-09-29T14:43:15.120Z,2.00
2022-09-29T14:46:22.375Z,1.67
2022-09-29T14:49:19.815Z,1.55
2022-09-29T14:52:01.055Z,0.80
2022-09-29T14:54:43.216Z,1.02
2022-09-29T14:57:23.556Z,0.90
2022-09-29T15:00:04.255Z,1.00
2022-09-29T15:02:37.623Z,0.98
2022-09-29T15:05:30.745Z,1.15
2022-09-29T15:08:01.011Z,1.27
2022-09-29T15:10:33.055Z,1.00
2022-09-29T15:13:23.502Z,1.00
2022-09-29T15:15:54.947Z,1.25
2022-09-29T15:18:35.947Z,1.00
2022-09-29T15:21:13.805Z,1.15
2022-09-29T15:24:32.155Z,1.15
2022-09-29T15:27:05.369Z,1.30
2022-09-29T15:29:33.730Z,1.02
2022-09-29T15:32:02.367Z,1.00
2022-09-29T15:34:30.766Z,1.17
2022-09-29T15:37:00.281Z,1.60
2022-09-29T15:39:45.357Z,1.55
2022-09-29T15:42:18.839Z,1.30
2022-09-29T15:44:49.116Z,1.08
2022-09-29T15:47:24.209Z,1.33
2022-09-29T15:49:53.614Z,1.10
2022-09-29T15:52:23.795Z,0.73
2022-09-29T15:54:56.842Z,0.93
2022-09-29T15:57:47.135Z,1.20
2022-09-29T16:00:43.924Z,0.90
2022-09-29T16:03:16.216Z,0.93
2022-09-29T16:05:53.276Z,0.90
2022-09-29T16:08:24.720Z,0.95
2022-09-29T16:10:56.022Z,1.00
2022-09-29T16:13:27.622Z,1.10
2022-09-29T16:15:59.452Z,1.10
2022-09-29T16:18:30.616Z,0.88
2022-09-29T16:21:01.045Z,0.80
2022-09-29T16:23:35.973Z,0.90
2022-09-29T16:26:16.651Z,1.00
2022-09-29T16:29:02.446Z,0.63
2022-09-29T16:31:32.183Z,0.70
2022-09-29T16:34:03.885Z,1.00
2022-09-29T16:36:36.051Z,0.82
2022-09-29T16:39:06.192Z,0.63
2022-09-29T16:41:36.543Z,1.00
2022-09-29T16:44:12.861Z,0.55
2022-09-29T16:46:47.867Z,1.00
2022-09-29T16:49:18.848Z,1.17
2022-09-29T16:51:48.666Z,0.70
2022-09-29T16:54:21.357Z,0.85
2022-09-29T16:56:51.289Z,0.70
2022-09-29T16:59:21.039Z,0.90
2022-09-29T17:01:49.299Z,0.90
2022-09-29T17:04:18.162Z,1.00
2022-09-29T17:06:49.485Z,0.80
2022-09-29T17:09:28.688Z,0.80
2022-09-29T17:11:57.073Z,0.70
2022-09-29T17:14:30.202Z,0.73
2022-09-29T17:16:58.830Z,0.70
2022-09-29T17:19:27.095Z,0.70
2022-09-29T17:21:56.670Z,0.77
2022-09-29T17:24:25.021Z,0.90
2022-09-29T17:27:10.665Z,0.82
2022-09-29T17:29:41.298Z,1.20
2022-09-29T17:32:14.837Z,1.73
2022-09-29T17:34:43.002Z,3.30
2022-09-29T17:37:11.454Z,1.30
2022-09-29T17:39:39.726Z,1.35
2022-09-29T17:42:08.572Z,1.38
2022-09-29T17:44:37.727Z,0.93
2022-09-29T17:47:24.221Z,0.70
2022-09-29T17:49:55.901Z,1.00
2022-09-29T17:52:24.294Z,1.15
2022-09-29T17:54:52.504Z,0.98
2022-09-29T17:57:26.567Z,0.73
2022-09-29T17:59:55.143Z,0.75
2022-09-29T18:02:25.306Z,1.10
2022-09-29T18:04:54.219Z,0.93
2022-09-29T18:07:22.887Z,1.08
2022-09-29T18:09:51.141Z,0.87
2022-09-29T18:12:19.578Z,1.00
2022-09-29T18:14:47.809Z,1.00
2022-09-29T18:17:16.293Z,0.70
2022-09-29T18:19:46.318Z,0.65
2022-09-29T18:22:14.629Z,0.90
2022-09-29T18:24:43.021Z,0.60
2022-09-29T18:27:14.835Z,0.40
2022-09-29T18:29:43.413Z,0.63
2022-09-29T18:32:15.394Z,0.50
2022-09-29T18:34:45.159Z,0.90
2022-09-29T18:37:13.355Z,1.10
2022-09-29T18:39:41.525Z,1.27
2022-09-29T18:42:11.159Z,1.90
2022-09-29T18:44:39.576Z,0.90
2022-09-29T18:47:07.760Z,0.90
2022-09-29T18:49:36.160Z,1.07
2022-09-29T18:52:05.789Z,0.97
2022-09-29T18:54:34.455Z,1.03
2022-09-29T18:57:03.044Z,1.10
2022-09-29T18:59:32.594Z,0.90
2022-09-29T19:02:00.959Z,0.90
2022-09-29T19:04:30.283Z,2.23
2022-09-29T19:06:58.733Z,1.20
2022-09-29T19:09:28.628Z,2.90
2022-09-29T19:11:56.773Z,1.97
2022-09-29T19:14:25.088Z,2.30
2022-09-29T19:16:55.107Z,1.93
2022-09-29T19:19:24.962Z,2.20
2022-09-29T19:21:53.364Z,2.80
2022-09-29T19:24:24.176Z,2.60
2022-09-29T19:26:53.784Z,4.10
2022-09-29T19:29:22.464Z,2.47
2022-09-29T19:31:51.112Z,3.57
2022-09-29T19:34:19.531Z,3.03
2022-09-29T19:36:48.050Z,3.90
2022-09-29T19:39:16.403Z,3.97
2022-09-29T19:41:44.758Z,3.40
2022-09-29T19:44:14.477Z,3.50
2022-09-29T19:46:43.191Z,3.17
2022-09-29T19:49:11.501Z,3.03
2022-09-29T19:51:52.838Z,3.17
2022-09-29T19:54:22.413Z,2.23
2022-09-29T19:56:52.439Z,2.63
2022-09-29T19:59:23.473Z,3.00
2022-09-29T20:01:54.918Z,2.87
2022-09-29T20:04:29.593Z,2.27
2022-09-29T20:06:58.566Z,2.40
2022-09-29T20:09:27.268Z,2.33
2022-09-29T20:11:56.111Z,2.13
2022-09-29T20:14:26.584Z,2.17
2022-09-29T20:16:56.610Z,1.60
2022-09-29T20:19:25.570Z,2.60
2022-09-29T20:21:54.490Z,2.90
2022-09-29T20:24:25.400Z,1.77
2022-09-29T20:26:55.504Z,1.27
2022-09-29T20:29:25.147Z,1.40
2022-09-29T20:31:53.841Z,1.33
2022-09-29T20:34:22.444Z,1.23
2022-09-29T20:36:54.807Z,1.20
2022-09-29T20:39:25.374Z,2.63
2022-09-29T20:41:54.640Z,2.00
2022-09-29T20:44:25.665Z,1.63
2022-09-29T20:46:55.801Z,1.77
2022-09-29T20:49:24.329Z,1.70
2022-09-29T20:51:52.981Z,1.43
2022-09-29T20:54:22.325Z,1.50
2022-09-29T20:56:51.000Z,1.40
2022-09-29T20:59:20.989Z,1.23
2022-09-29T21:01:49.774Z,1.40
2022-09-29T21:04:21.013Z,1.43
2022-09-29T21:06:50.822Z,1.90
2022-09-29T21:09:22.024Z,2.47
2022-09-29T21:11:51.081Z,3.33
2022-09-29T21:14:21.386Z,3.97
2022-09-29T21:16:51.229Z,4.67
2022-09-29T21:19:26.219Z,4.63
2022-09-29T21:21:55.414Z,4.40
2022-09-29T21:24:23.946Z,4.67
2022-09-29T21:26:52.738Z,4.70
2022-09-29T21:29:21.214Z,4.70
2022-09-29T21:31:50.569Z,4.57
2022-09-29T21:34:21.129Z,4.70
2022-09-29T21:36:49.753Z,4.80
2022-09-29T21:39:18.365Z,4.67
2022-09-29T21:41:47.138Z,5.17
2022-09-29T21:44:17.502Z,5.17
2022-09-29T21:46:46.515Z,5.57
2022-09-29T21:49:16.610Z,5.17
2022-09-29T21:51:48.091Z,5.50
2022-09-29T21:54:17.733Z,5.83
2022-09-29T21:56:47.011Z,5.70
2022-09-29T21:59:17.286Z,5.63
2022-09-29T22:01:46.299Z,5.83
2022-09-29T22:04:15.291Z,6.10
2022-09-29T22:06:45.633Z,5.90
2022-09-29T22:09:17.973Z,6.47
2022-09-29T22:11:46.748Z,6.03
2022-09-29T22:14:16.920Z,5.97
2022-09-29T22:16:45.949Z,6.40
2022-09-29T22:19:29.760Z,6.00
2022-09-29T22:21:59.458Z,6.70
2022-09-29T22:24:28.812Z,6.07
2022-09-29T22:26:57.374Z,6.30
2022-09-29T22:29:25.980Z,6.53
2022-09-29T22:31:54.331Z,6.23
2022-09-29T22:34:22.703Z,6.23
2022-09-29T22:36:51.274Z,6.47
2022-09-29T22:39:20.972Z,6.10
2022-09-29T22:41:50.930Z,6.77
2022-09-29T22:44:19.381Z,7.47
2022-09-29T22:46:47.686Z,7.97
2022-09-29T22:49:18.942Z,8.07
2022-09-29T22:51:47.087Z,8.10
2022-09-29T22:54:15.539Z,7.73
2022-09-29T22:56:45.460Z,7.70
2022-09-29T22:59:14.276Z,7.87
2022-09-29T23:01:42.892Z,7.63
2022-09-29T23:04:11.271Z,7.57
2022-09-29T23:06:39.957Z,7.57
2022-09-29T23:09:08.525Z,7.40
2022-09-29T23:11:37.065Z,7.40
2022-09-29T23:14:07.140Z,7.47
2022-09-29T23:16:35.658Z,7.40
2022-09-29T23:19:04.199Z,6.97
2022-09-29T23:21:34.192Z,7.40
2022-09-29T23:24:06.717Z,7.57
2022-09-29T23:26:35.119Z,7.40
2022-09-29T23:29:05.811Z,8.57
2022-09-29T23:31:35.455Z,7.83
2022-09-29T23:34:04.188Z,7.70
2022-09-29T23:36:32.756Z,7.93
2022-09-29T23:39:14.084Z,8.50
2022-09-29T23:41:44.576Z,8.53
2022-09-29T23:44:15.525Z,8.70
2022-09-29T23:46:45.399Z,8.53
2022-09-29T23:49:17.955Z,8.60
2022-09-29T23:51:47.725Z,8.70
2022-09-29T23:54:20.092Z,9.00
2022-09-29T23:56:49.414Z,8.77
2022-09-29T23:59:18.206Z,8.50
